Rushmoor, United Kingdom

3:37 AM BST on September 27, 2016 (GMT +0100)
| | Change Station

Elev -9999 ft 0.00 °N, 0.00 °E | Updated

Partly Cloudy
Partly Cloudy
55 °F
Feels Like 55 °F
N
8
Wind Variable Wind from South
Gusts 14 mph

Today
High -- | Low -- °F
--% Chance of Precip.
Yesterday
High -- | Low -- °F
Precip. -- in
Pressure 30.18 in
Visibility 6.2 miles
Clouds
Dew Point 51 °F
Humidity 86%
Rainfall --
Snow Depth Not available.
6:57 AM 6:49 PM
Waning Crescent, 14% visible
METAR EGLL 270220Z AUTO 15002KT 9999 NCD 12/10 Q1022 NOSIG
Pressure 30.18 in
Visibility 6.2 miles
Clouds
Dew Point 51 °F
Humidity 86%
Rainfall --
Snow Depth Not available.
6:57 AM 6:49 PM
Waning Crescent, 14% visible
METAR EGLL 270220Z AUTO 15002KT 9999 NCD 12/10 Q1022 NOSIG

10-Day Weather Forecast

×

Almanac

Astronomy

Sep. 27, 2016 Rise Set
Actual Time
Civil Twilight
Nautical Twilight
Astronomical Twilight
Moon
Length of Visible Light
Length of Day
Tomorrow will be .
, % of the Moon is Illuminated

Today's Extremes

Country Highs Country Lows

Community

WunderPhotos

Upload Photos

1,942,022 photos uploaded!

WunderBlog® & News

Nearby

Air Quality

  Air Quality AQ Index Pollutant
Not available.

Snow Depth

Station Depth Elevation

Earthquake Activity

City Distance Mag. Time & Date
Minimum magnitude displayed is 2.5.

Coastal Water Temperatures

Place Temperature

Stations

Nearby Weather Stations

Station Location Temp. Windchill Dew Point Humidity Wind Precip. Elev Updated Type